Flight Track Log - Related Links

Times and Time Zones

All times are in EDT time to prevent confusion due to time zone crossing. See the DAL6234 flight status page for this flight to view local times or setup timezone preferences in your user account.

Time Position Orientation Groundspeed Altitude Reporting Facility
EDT Latitude Longitude Course Direction KTS MPH feet Rate Location/Type
Wed 04:17:39 PM 40.7500 -73.8500 114° Southeast 145 167 1,400  Level New York TRACON
Wed 04:18:39 PM 40.7333 -73.8000 114° Southeast 226 260 3,100 1,750 Climbing New York TRACON
Wed 04:19:39 PM 40.7833 -73.7833 14° North 252 290 4,900 2,450 Climbing New York TRACON
Wed 04:20:39 PM 40.8667 -73.8000 351° North 284 327 8,000 2,950 Climbing New York TRACON
Wed 04:21:39 PM 40.9333 -73.8167 349° North 283 326 10,800 2,550 Climbing New York TRACON
Wed 04:22:39 PM 40.9833 -73.9000 308° West 273 314 13,100 1,648 Climbing New York TRACON
Wed 04:24:52 PM 41.0636 -74.1339 295° West 332 382 16,100 923 Climbing New York Center
Wed 04:25:54 PM 41.1003 -74.2350 296° West 339 390 16,100  Level New York Center
Wed 04:26:51 PM 41.1506 -74.3669 297° West 354 407 16,100  Level New York Center
Wed 04:27:53 PM 41.1889 -74.4767 295° West 365 420 16,100 149 Level New York Center
Wed 04:28:52 PM 41.2453 -74.6039 301° West 370 426 16,400 857 Climbing New York Center
Wed 04:29:52 PM 41.3044 -74.7039 308° West 375 432 17,800 1,388 Climbing New York Center
Wed 04:30:53 PM 41.3675 -74.8097 308° West 375 432 19,200 1,426 Climbing New York Center
Wed 04:31:54 PM 41.4386 -74.9192 311° West 381 438 20,700 1,388 Climbing New York Center
Wed 04:32:54 PM 41.5075 -75.0289 310° West 386 444 22,000 661 Climbing New York Center
Wed 04:33:52 PM 41.5806 -75.1442 310° West 386 444 22,000  Level New York Center
Wed 04:34:52 PM 41.6567 -75.2769 308° West 398 458 22,000  Level New York Center
Wed 04:35:52 PM 41.7292 -75.3958 309° West 404 465 22,000  Level New York Center
Wed 04:36:53 PM 41.7972 -75.5147 308° West 409 471 22,000  Level New York Center
Wed 04:37:52 PM 41.8675 -75.6339 308° West 409 471 22,000 -50 Level New York Center
Wed 04:38:53 PM 41.9375 -75.7533 308° West 414 476 21,900 -500 Descending New York Center
Wed 04:39:52 PM 42.0014 -75.8669 307° West 400 460 21,000 -1,500 Descending New York Center
Wed 04:40:53 PM 42.0614 -75.9692 308° West 382 440 18,900 -2,380 Descending New York Center
Wed 04:41:53 PM 42.1156 -76.0658 307° West 345 397 16,200 -2,571 Descending New York Center
Wed 04:42:52 PM 42.1811 -76.1325 323° Northwest 323 372 13,800 -1,901 Descending New York Center
Wed 04:44:34 PM 42.3408 -76.1200 North 347 399 11,100 -1,031 Descending Boston Center
Wed 04:45:35 PM 42.4369 -76.1117 North 345 397 11,000 -53 Descending Boston Center
Wed 04:46:28 PM 42.5228 -76.0969 North 346 398 11,000  Level Boston Center
Wed 04:47:28 PM 42.6189 -76.0942 North 335 386 11,000 -347 Level Boston Center
Wed 04:48:29 PM 42.6931 -76.1183 347° North 268 308 10,300 -1,131 Descending Boston Center
Wed 04:49:30 PM 42.7633 -76.1425 346° North 249 287 8,700 -1,636 Descending Boston Center
Wed 04:50:30 PM 42.8372 -76.1722 344° North 271 312 7,000 -1,587 Descending Boston Center
Wed 04:51:31 PM 42.9000 -76.2300 326° Northwest 279 321 5,500 -1,087 Descending Boston Center
Wed 04:52:37 PM 42.9686 -76.3025 322° Northwest 248 285 4,700 -898 Descending Boston Center
Wed 04:53:38 PM 43.0097 -76.3761 307° West 249 287 3,600 -984 Descending Boston Center
Wed 04:54:39 PM 43.0733 -76.4056 341° North 237 273 2,700 -621 Descending Boston Center
Wed 04:55:34 PM 43.1000 -76.3561 54° Northeast 178 205 2,400 -327 Descending Boston Center

Login

Don't have an account? Register now (free) for customized features, flight alerts, and more!